Washington Dulles International Airport
KIAD : now visible

Airfield :











YOU CAN JOIN US ON...

 
LOGIN :

Register | Disclaimer

   EN    FR    IT 

 









Legend :    VFR   Marginal VFR   IFR   Intensive IFR   Very Intensive IFR
Visi :
Ceiling :
>= 8 km
>= 3000ft
5 to 8 km
1000 to 3000 ft
1500m to 5 km
500 to 1000 ft
800 to 1500m
200 to 500 ft
< 800m
< 200 ft
Symbols :   Thunderstorms  Fog  Heavy snow  Heavy precipitations  Wind > 20 kt







- Airport Elevation : 312 ft
- IATA code : IAD


KIAD - Washington Dulles International

CURRENT METAR :
  • 260452Z 06004KT 10SM BKN250 17/13 A3019 RMK AO2 SLP222 T01720133 402610161 $

EXPIRED METARs :
  • 260352Z 00000KT 10SM SCT070 BKN250 18/13 A3020 RMK AO2 SLP224 T01780133 $
  • 260252Z 11004KT 10SM BKN070 BKN250 20/13 A3020 RMK AO2 SLP222 T02000133 51013 $

TAF KIAD
Valid from the 26 at 00:00 until the 27 at 06:00 UTC


252332Z 2600/2706 08009KT P6SM FEW050 SCT250
FM260400 03004KT P6SM SCT060 BKN250
FM261100 02006KT P6SM BKN040
FM261300 04007KT P6SM BKN030
FM261700 06006KT P6SM BKN035
FM262200 09007KT P6SM BKN030
No reported NOTAMs for that airfield.



MET'MAP, your aeronautical weather chart ! - Copyright ORBIFLY December 2007 - Disclaimer

ORBIFLY MET'MAP TEAM :

Programming & Development : Alexandra Zaïnal
Concept & Development : Baudouin d'Aumeries
Co-Development & Prog : Marc-Olivier Méhu
Technical & hardware support : Manuel Goepfert

Contact : metmap@orbifly.com




SOURCES & CREDITS :

   NOAA       Earth
Advisory